createdAt,value
2022-11-25T00:02:12.953Z,46.18
2022-11-25T00:07:15.524Z,46.33
2022-11-25T00:12:22.884Z,46.32
2022-11-25T00:17:24.765Z,46.41
2022-11-25T00:22:26.657Z,46.49
2022-11-25T00:27:28.524Z,46.53
2022-11-25T00:32:33.067Z,46.59
2022-11-25T00:37:34.944Z,46.59
2022-11-25T00:42:58.433Z,46.77
2022-11-25T00:48:07.073Z,46.76
2022-11-25T00:53:09.153Z,46.64
2022-11-25T00:58:11.032Z,46.71
2022-11-25T01:03:13.838Z,46.71
2022-11-25T01:08:15.815Z,46.83
2022-11-25T01:13:17.698Z,47.02
2022-11-25T01:18:19.675Z,46.97
2022-11-25T01:23:21.661Z,46.94
2022-11-25T01:28:23.539Z,46.86
2022-11-25T01:33:28.298Z,46.96
2022-11-25T01:38:30.472Z,46.91
2022-11-25T01:43:32.658Z,46.90
2022-11-25T01:48:40.068Z,46.94
2022-11-25T01:53:42.259Z,47.04
2022-11-25T01:58:46.190Z,47.14
2022-11-25T02:03:50.831Z,47.19
2022-11-25T02:08:55.479Z,47.14
2022-11-25T02:13:58.590Z,47.05
2022-11-25T02:19:03.744Z,47.13
2022-11-25T02:24:12.076Z,47.23
2022-11-25T02:29:14.464Z,47.28
2022-11-25T02:34:16.754Z,47.21
2022-11-25T02:39:19.342Z,47.23
2022-11-25T02:44:21.838Z,47.16
2022-11-25T02:49:23.822Z,47.14
2022-11-25T02:54:26.426Z,47.25
2022-11-25T02:59:28.298Z,47.21
2022-11-25T03:04:31.304Z,47.30
2022-11-25T03:09:33.180Z,47.47
2022-11-25T03:14:35.226Z,47.42
2022-11-25T03:19:37.349Z,47.38
2022-11-25T03:24:39.147Z,47.51
2022-11-25T03:29:41.113Z,47.58
2022-11-25T03:34:43.333Z,47.47
2022-11-25T03:39:45.872Z,47.53
2022-11-25T03:44:47.876Z,47.52
2022-11-25T03:49:49.902Z,47.58
2022-11-25T03:54:52.147Z,47.80
2022-11-25T03:59:56.687Z,47.67
2022-11-25T04:04:58.752Z,47.47
2022-11-25T04:10:00.651Z,47.35
2022-11-25T04:15:04.378Z,47.55
2022-11-25T04:20:07.476Z,47.61
2022-11-25T04:25:09.975Z,47.56
2022-11-25T04:30:12.476Z,47.60
2022-11-25T04:35:15.568Z,47.64
2022-11-25T04:40:20.667Z,47.61
2022-11-25T04:45:26.612Z,47.52
2022-11-25T04:50:30.434Z,47.64
2022-11-25T04:55:40.307Z,47.48
2022-11-25T05:00:46.773Z,47.37
2022-11-25T05:05:49.487Z,47.45
2022-11-25T05:10:52.434Z,47.44
2022-11-25T05:15:54.510Z,47.46
2022-11-25T05:21:00.965Z,47.46
2022-11-25T05:26:04.584Z,47.46
2022-11-25T05:31:14.725Z,47.40
2022-11-25T05:36:18.485Z,47.50
2022-11-25T05:41:21.895Z,47.54
2022-11-25T05:46:25.879Z,47.62
2022-11-25T05:51:30.578Z,47.48
2022-11-25T05:56:34.641Z,47.56
2022-11-25T06:01:55.018Z,47.66
2022-11-25T06:06:56.822Z,47.78
2022-11-25T06:11:58.876Z,47.76
2022-11-25T06:17:01.073Z,47.61
2022-11-25T06:22:09.701Z,47.40
2022-11-25T06:27:11.790Z,47.62
2022-11-25T06:32:13.948Z,47.47
2022-11-25T06:37:36.127Z,47.55
2022-11-25T06:42:38.260Z,47.59
2022-11-25T06:47:40.138Z,47.55
2022-11-25T06:52:41.975Z,47.56
2022-11-25T06:57:43.786Z,47.56
2022-11-25T07:02:48.691Z,47.44
2022-11-25T07:07:50.909Z,47.37
2022-11-25T07:12:53.178Z,47.38
2022-11-25T07:17:54.990Z,47.35
2022-11-25T07:22:56.819Z,47.25
2022-11-25T07:27:59.945Z,47.24
2022-11-25T07:33:01.965Z,47.18
2022-11-25T07:38:03.955Z,47.27
2022-11-25T07:43:05.894Z,47.27
2022-11-25T07:48:07.736Z,47.15
2022-11-25T07:53:09.649Z,46.95
2022-11-25T07:58:11.526Z,46.87
2022-11-25T08:03:13.452Z,46.86
2022-11-25T08:08:15.387Z,46.90
2022-11-25T08:13:17.366Z,46.82
2022-11-25T08:18:19.366Z,46.85
2022-11-25T08:23:21.148Z,46.61
2022-11-25T08:28:23.288Z,46.52
2022-11-25T08:33:25.099Z,46.37
2022-11-25T08:38:27.983Z,46.26
2022-11-25T08:43:30.088Z,46.31
2022-11-25T08:48:33.390Z,46.27
2022-11-25T08:53:35.773Z,45.89
2022-11-25T08:58:37.732Z,45.88
2022-11-25T09:03:42.293Z,45.82
2022-11-25T09:08:45.056Z,45.60
2022-11-25T09:13:46.958Z,45.58
2022-11-25T09:18:55.291Z,45.48
2022-11-25T09:23:57.567Z,45.20
2022-11-25T09:28:59.496Z,45.08
2022-11-25T09:34:01.375Z,45.13
2022-11-25T09:39:03.763Z,45.00
2022-11-25T09:44:31.622Z,44.96
2022-11-25T09:49:40.215Z,44.78
2022-11-25T09:54:44.482Z,44.61
2022-11-25T09:59:50.766Z,44.35
2022-11-25T10:04:57.422Z,44.21
2022-11-25T10:10:01.511Z,44.32
2022-11-25T10:15:06.521Z,44.13
2022-11-25T10:20:15.119Z,43.57
2022-11-25T10:25:27.590Z,43.96
2022-11-25T10:30:52.807Z,44.10
2022-11-25T10:35:57.724Z,44.17
2022-11-25T10:41:00.737Z,44.11
2022-11-25T10:46:02.481Z,43.78
2022-11-25T10:51:23.161Z,43.77
2022-11-25T10:56:24.971Z,43.71
2022-11-25T11:01:26.826Z,43.79
2022-11-25T11:06:38.703Z,43.89
2022-11-25T11:11:47.549Z,43.98
2022-11-25T11:16:53.950Z,43.79
2022-11-25T11:21:56.630Z,43.46
2022-11-25T11:27:20.795Z,43.53
2022-11-25T11:32:24.066Z,43.89
2022-11-25T11:37:31.940Z,43.90
2022-11-25T11:43:06.001Z,43.91
2022-11-25T11:48:14.019Z,43.67
2022-11-25T11:53:15.997Z,43.57
2022-11-25T11:58:26.992Z,43.62
2022-11-25T12:03:29.743Z,43.70
2022-11-25T12:08:41.089Z,43.68
2022-11-25T12:13:57.867Z,43.57
2022-11-25T12:19:06.766Z,43.66
2022-11-25T12:24:14.354Z,43.79
2022-11-25T12:29:20.340Z,43.68
2022-11-25T12:34:22.109Z,43.85
2022-11-25T12:39:37.634Z,43.94
2022-11-25T12:44:54.465Z,44.14
2022-11-25T12:49:57.264Z,44.08
2022-11-25T12:55:19.019Z,43.95
2022-11-25T13:00:41.213Z,43.60
2022-11-25T13:05:50.141Z,43.33
2022-11-25T13:10:55.121Z,43.45
2022-11-25T13:15:59.509Z,43.72
2022-11-25T13:21:09.749Z,43.73
2022-11-25T13:26:32.031Z,43.64
2022-11-25T13:31:35.145Z,43.53
2022-11-25T13:36:50.855Z,43.70
2022-11-25T13:42:03.896Z,43.50
2022-11-25T13:48:53.292Z,44.61
2022-11-25T13:54:01.825Z,43.39
2022-11-25T13:59:48.664Z,43.63
2022-11-25T14:05:09.331Z,43.49
2022-11-25T14:10:22.013Z,43.61
2022-11-25T14:15:23.785Z,43.56
2022-11-25T14:20:32.283Z,43.56
2022-11-25T14:25:43.526Z,43.65
2022-11-25T14:30:53.627Z,43.63
2022-11-25T14:36:02.191Z,43.79
2022-11-25T14:41:13.427Z,43.65
2022-11-25T14:46:25.362Z,43.77
2022-11-25T14:51:34.168Z,43.91
2022-11-25T14:56:37.067Z,43.99
2022-11-25T15:01:40.205Z,44.07
2022-11-25T15:06:48.712Z,44.10
2022-11-25T15:11:57.605Z,44.06
2022-11-25T15:17:00.259Z,43.94
2022-11-25T15:27:28.813Z,43.95
2022-11-25T15:32:37.685Z,43.87
2022-11-25T15:37:39.593Z,43.95
2022-11-25T15:42:42.366Z,44.04
2022-11-25T15:47:44.998Z,43.94
2022-11-25T15:52:51.361Z,43.94
2022-11-25T15:57:54.533Z,43.80
2022-11-25T16:02:57.958Z,43.93
2022-11-25T16:08:24.406Z,43.95
2022-11-25T16:13:33.987Z,43.86
2022-11-25T16:19:03.411Z,43.69
2022-11-25T16:24:08.003Z,43.83
2022-11-25T16:29:18.769Z,43.86
2022-11-25T16:34:24.237Z,43.92
2022-11-25T16:39:26.235Z,43.96
2022-11-25T16:44:28.953Z,43.95
2022-11-25T16:49:31.837Z,43.89
2022-11-25T16:54:34.060Z,44.01
2022-11-25T16:59:39.860Z,43.94
2022-11-25T17:04:41.845Z,43.95
2022-11-25T17:09:45.049Z,43.94
2022-11-25T17:14:48.506Z,44.15
2022-11-25T17:19:50.809Z,44.03
2022-11-25T17:24:52.733Z,44.17
2022-11-25T17:29:57.302Z,44.15
2022-11-25T17:34:59.567Z,44.02
2022-11-25T17:40:01.348Z,44.09
2022-11-25T17:45:03.609Z,44.16
2022-11-25T17:50:22.594Z,44.18
2022-11-25T17:55:24.452Z,44.13
2022-11-25T18:00:26.350Z,44.14
2022-11-25T18:05:28.741Z,44.21
2022-11-25T18:10:30.663Z,44.29
2022-11-25T18:15:34.141Z,44.19
2022-11-25T18:20:36.019Z,44.06
2022-11-25T18:25:39.931Z,44.03
2022-11-25T18:30:41.846Z,44.18
2022-11-25T18:35:45.361Z,44.22
2022-11-25T18:40:51.986Z,44.24
2022-11-25T18:45:55.768Z,44.29
2022-11-25T18:50:57.760Z,44.28
2022-11-25T18:55:59.656Z,44.34
2022-11-25T19:01:10.901Z,44.36
2022-11-25T19:06:17.436Z,44.49
2022-11-25T19:11:31.162Z,44.43
2022-11-25T19:16:33.030Z,44.44
2022-11-25T19:21:34.918Z,44.49
2022-11-25T19:26:42.421Z,44.64
2022-11-25T19:31:44.460Z,44.74
2022-11-25T19:36:46.252Z,44.75
2022-11-25T19:41:48.397Z,44.71
2022-11-25T19:47:14.230Z,44.74
2022-11-25T19:52:27.905Z,44.76
2022-11-25T19:57:29.685Z,44.65
2022-11-25T20:02:31.682Z,44.65
2022-11-25T20:07:34.683Z,44.76
2022-11-25T20:12:36.468Z,44.75
2022-11-25T20:17:41.218Z,44.69
2022-11-25T20:22:55.995Z,44.67
2022-11-25T20:27:57.736Z,44.78
2022-11-25T20:32:59.490Z,44.78
2022-11-25T20:38:01.572Z,44.73
2022-11-25T20:43:03.370Z,44.69
2022-11-25T20:48:11.282Z,44.70
2022-11-25T20:53:19.561Z,44.80
2022-11-25T20:58:31.050Z,44.71
2022-11-25T21:03:32.992Z,44.66
2022-11-25T21:08:34.724Z,44.53
2022-11-25T21:13:36.667Z,44.48
2022-11-25T21:18:39.050Z,44.62
2022-11-25T21:23:40.970Z,44.64
2022-11-25T21:28:45.589Z,44.78
2022-11-25T21:33:48.226Z,44.70
2022-11-25T21:38:52.972Z,44.70
2022-11-25T21:43:55.105Z,44.65
2022-11-25T21:48:56.929Z,44.67
2022-11-25T21:53:58.695Z,44.46
2022-11-25T21:59:02.894Z,44.37
2022-11-25T22:04:04.804Z,44.57
2022-11-25T22:09:06.622Z,44.59
2022-11-25T22:14:39.443Z,44.58
2022-11-25T22:19:41.527Z,44.64
2022-11-25T22:24:43.816Z,44.80
2022-11-25T22:29:45.726Z,44.92
2022-11-25T22:34:47.481Z,44.88
2022-11-25T22:39:49.573Z,45.13
2022-11-25T22:44:52.419Z,45.02
2022-11-25T22:49:54.425Z,45.06
2022-11-25T22:55:00.095Z,45.16
2022-11-25T23:00:01.851Z,45.35
2022-11-25T23:05:13.283Z,45.70
2022-11-25T23:10:27.173Z,46.00
2022-11-25T23:15:29.436Z,46.10
2022-11-25T23:20:32.564Z,45.98
2022-11-25T23:25:34.293Z,45.95
2022-11-25T23:36:24.879Z,49.48
2022-11-25T23:41:39.649Z,46.40
2022-11-25T23:46:42.106Z,46.51
2022-11-25T23:51:43.925Z,46.57
2022-11-25T23:56:45.729Z,46.27
